createdAt,value
2022-11-24T00:01:30.179Z,84.98
2022-11-24T00:04:01.387Z,85.07
2022-11-24T00:06:31.234Z,85.16
2022-11-24T00:08:59.650Z,85.19
2022-11-24T00:11:30.243Z,84.95
2022-11-24T00:13:59.134Z,84.95
2022-11-24T00:16:30.136Z,84.95
2022-11-24T00:19:00.393Z,84.92
2022-11-24T00:21:30.208Z,84.94
2022-11-24T00:23:59.097Z,84.99
2022-11-24T00:26:32.586Z,84.91
2022-11-24T00:29:03.545Z,84.91
2022-11-24T00:31:35.426Z,84.94
2022-11-24T00:34:12.267Z,84.90
2022-11-24T00:36:41.312Z,84.95
2022-11-24T00:39:14.859Z,84.98
2022-11-24T00:41:43.862Z,85.10
2022-11-24T00:44:11.927Z,85.18
2022-11-24T00:46:40.336Z,85.12
2022-11-24T00:49:08.856Z,85.12
2022-11-24T00:51:36.845Z,85.24
2022-11-24T00:54:04.812Z,85.23
2022-11-24T00:56:32.893Z,85.26
2022-11-24T00:59:00.970Z,85.23
2022-11-24T01:01:31.403Z,85.37
2022-11-24T01:04:01.789Z,85.46
2022-11-24T01:06:31.308Z,85.50
2022-11-24T01:08:59.586Z,85.47
2022-11-24T01:11:50.488Z,85.49
2022-11-24T01:14:19.915Z,85.57
2022-11-24T01:16:47.959Z,85.65
2022-11-24T01:19:17.443Z,85.64
2022-11-24T01:21:45.532Z,85.62
2022-11-24T01:24:13.915Z,85.67
2022-11-24T01:26:42.083Z,85.74
2022-11-24T01:29:11.987Z,85.72
2022-11-24T01:31:40.014Z,85.84
2022-11-24T01:34:08.472Z,85.77
2022-11-24T01:36:36.430Z,85.73
2022-11-24T01:39:04.690Z,85.74
2022-11-24T01:41:35.892Z,85.74
2022-11-24T01:44:24.138Z,85.68
2022-11-24T01:47:15.082Z,85.84
2022-11-24T01:49:51.453Z,85.92
2022-11-24T01:52:38.668Z,85.87
2022-11-24T01:55:14.213Z,85.87
2022-11-24T01:57:59.590Z,85.92
2022-11-24T02:00:27.712Z,85.86
2022-11-24T02:02:55.884Z,85.82
2022-11-24T02:05:33.634Z,85.89
2022-11-24T02:08:03.130Z,86.01
2022-11-24T02:10:31.312Z,86.10
2022-11-24T02:13:00.837Z,86.09
2022-11-24T02:15:29.320Z,86.11
2022-11-24T02:17:59.409Z,86.17
2022-11-24T02:20:27.477Z,86.25
2022-11-24T02:23:20.325Z,86.26
2022-11-24T02:26:10.006Z,86.31
2022-11-24T02:28:38.568Z,86.34
2022-11-24T02:31:06.594Z,86.37
2022-11-24T02:33:35.769Z,86.44
2022-11-24T02:36:04.235Z,86.51
2022-11-24T02:38:34.158Z,86.51
2022-11-24T02:41:11.785Z,86.57
2022-11-24T02:43:44.006Z,86.63
2022-11-24T02:46:12.153Z,86.64
2022-11-24T02:48:40.142Z,86.72
2022-11-24T02:51:08.223Z,86.73
2022-11-24T02:53:36.189Z,86.72
2022-11-24T02:56:04.855Z,86.77
2022-11-24T02:58:32.859Z,86.79
2022-11-24T03:01:00.922Z,86.76
2022-11-24T03:03:28.981Z,86.76
2022-11-24T03:05:56.949Z,86.83
2022-11-24T03:08:24.872Z,86.89
2022-11-24T03:10:52.890Z,86.96
2022-11-24T03:13:20.964Z,87.09
2022-11-24T03:15:49.064Z,87.09
2022-11-24T03:18:17.200Z,87.11
2022-11-24T03:20:45.270Z,87.16
2022-11-24T03:23:13.238Z,87.32
2022-11-24T03:25:41.204Z,87.31
2022-11-24T03:28:09.480Z,87.27
2022-11-24T03:30:37.553Z,87.25
2022-11-24T03:33:07.419Z,87.36
2022-11-24T03:35:35.536Z,87.37
2022-11-24T03:38:03.518Z,87.35
2022-11-24T03:40:31.675Z,87.31
2022-11-24T03:42:59.644Z,87.26
2022-11-24T03:45:45.618Z,87.26
2022-11-24T03:48:15.827Z,87.30
2022-11-24T03:50:44.743Z,87.35
2022-11-24T03:53:12.827Z,87.49
2022-11-24T03:55:43.615Z,87.49
2022-11-24T03:58:11.716Z,87.51
2022-11-24T04:00:40.101Z,87.46
2022-11-24T04:03:08.209Z,87.47
2022-11-24T04:05:36.755Z,87.50
2022-11-24T04:08:05.634Z,87.55
2022-11-24T04:10:36.885Z,87.57
2022-11-24T04:13:16.319Z,87.63
2022-11-24T04:15:44.869Z,87.57
2022-11-24T04:18:14.311Z,87.56
2022-11-24T04:20:43.416Z,87.59
2022-11-24T04:23:11.879Z,87.68
2022-11-24T04:25:41.793Z,87.77
2022-11-24T04:28:10.561Z,87.78
2022-11-24T04:30:40.395Z,87.74
2022-11-24T04:33:08.372Z,87.78
2022-11-24T04:35:36.430Z,87.73
2022-11-24T04:38:04.399Z,87.59
2022-11-24T04:40:32.470Z,87.59
2022-11-24T04:43:00.539Z,87.51
2022-11-24T04:45:28.506Z,87.46
2022-11-24T04:47:56.678Z,87.40
2022-11-24T04:50:25.262Z,87.34
2022-11-24T04:52:53.332Z,87.27
2022-11-24T04:55:21.510Z,87.38
2022-11-24T04:57:49.573Z,87.47
2022-11-24T05:00:18.521Z,87.51
2022-11-24T05:02:46.532Z,87.55
2022-11-24T05:05:14.503Z,87.48
2022-11-24T05:07:42.703Z,87.49
2022-11-24T05:10:29.292Z,87.50
2022-11-24T05:12:59.710Z,87.54
2022-11-24T05:15:28.178Z,87.59
2022-11-24T05:17:56.156Z,87.63
2022-11-24T05:20:25.029Z,87.67
2022-11-24T05:22:53.105Z,87.63
2022-11-24T05:25:21.277Z,87.65
2022-11-24T05:27:49.148Z,87.68
2022-11-24T05:30:17.117Z,87.75
2022-11-24T05:32:45.391Z,87.67
2022-11-24T05:35:14.586Z,87.63
2022-11-24T05:37:42.453Z,87.64
2022-11-24T05:40:11.173Z,87.66
2022-11-24T05:49:31.264Z,87.64
2022-11-24T05:51:59.361Z,87.68
2022-11-24T05:54:27.301Z,87.73
2022-11-24T05:56:56.594Z,87.78
2022-11-24T05:59:24.665Z,87.81
2022-11-24T06:01:52.616Z,87.82
2022-11-24T06:04:20.505Z,87.86
2022-11-24T06:06:48.366Z,87.82
2022-11-24T06:09:16.637Z,87.75
2022-11-24T06:11:44.603Z,87.76
2022-11-24T06:14:12.473Z,87.76
2022-11-24T06:16:40.487Z,87.83
2022-11-24T06:19:10.456Z,87.78
2022-11-24T06:21:38.625Z,87.84
2022-11-24T06:24:08.301Z,87.88
2022-11-24T06:26:36.205Z,87.93
2022-11-24T06:29:04.169Z,87.98
2022-11-24T06:31:32.181Z,88.02
2022-11-24T06:34:00.924Z,88.02
2022-11-24T06:36:29.097Z,88.05
2022-11-24T06:38:57.064Z,88.04
2022-11-24T06:41:25.035Z,88.05
2022-11-24T06:43:53.026Z,88.06
2022-11-24T06:46:21.517Z,87.96
2022-11-24T06:48:55.817Z,87.84
2022-11-24T06:51:23.809Z,87.63
2022-11-24T06:53:51.988Z,87.62
2022-11-24T06:56:21.547Z,87.55
2022-11-24T06:58:51.663Z,87.61
2022-11-24T07:01:25.959Z,87.74
2022-11-24T07:03:55.584Z,87.75
2022-11-24T07:06:25.020Z,87.81
2022-11-24T07:08:52.959Z,87.81
2022-11-24T07:11:23.789Z,87.80
2022-11-24T07:13:58.159Z,87.73
2022-11-24T07:16:28.796Z,87.68
2022-11-24T07:18:57.013Z,87.67
2022-11-24T07:21:26.088Z,87.58
2022-11-24T07:23:56.561Z,87.33
2022-11-24T07:26:25.068Z,87.23
2022-11-24T07:28:53.187Z,87.11
2022-11-24T07:31:25.119Z,87.17
2022-11-24T07:33:54.669Z,87.24
2022-11-24T07:36:23.551Z,87.44
2022-11-24T07:38:51.714Z,87.48
2022-11-24T07:41:20.911Z,87.44
2022-11-24T07:43:51.063Z,87.63
2022-11-24T07:46:20.900Z,87.62
2022-11-24T07:48:48.930Z,87.68
2022-11-24T07:51:16.996Z,87.70
2022-11-24T07:53:46.061Z,87.65
2022-11-24T07:56:14.051Z,87.50
2022-11-24T07:58:42.012Z,87.60
2022-11-24T08:01:15.357Z,87.52
2022-11-24T08:03:44.054Z,87.51
2022-11-24T08:06:36.271Z,87.51
2022-11-24T08:09:02.163Z,86.91
2022-11-24T08:11:31.733Z,86.99
2022-11-24T08:13:59.730Z,87.14
2022-11-24T08:16:27.602Z,87.21
2022-11-24T08:18:56.994Z,87.09
2022-11-24T08:21:25.567Z,87.08
2022-11-24T08:23:57.445Z,87.11
2022-11-24T08:26:26.042Z,87.02
2022-11-24T08:28:57.070Z,86.92
2022-11-24T08:31:33.203Z,86.54
2022-11-24T08:34:03.242Z,86.51
2022-11-24T08:36:32.221Z,86.00
2022-11-24T08:39:01.066Z,86.07
2022-11-24T08:41:29.667Z,86.27
2022-11-24T08:43:58.191Z,86.32
2022-11-24T08:46:26.234Z,86.47
2022-11-24T08:48:55.555Z,86.49
2022-11-24T08:51:26.380Z,86.40
2022-11-24T08:53:59.500Z,86.46
2022-11-24T08:56:29.557Z,86.27
2022-11-24T08:58:58.455Z,86.00
2022-11-24T09:01:27.338Z,85.89
2022-11-24T09:03:55.859Z,85.84
2022-11-24T09:06:26.376Z,85.70
2022-11-24T09:08:55.762Z,85.38
2022-11-24T09:11:25.610Z,85.14
2022-11-24T09:13:54.641Z,84.33
2022-11-24T09:16:26.092Z,84.51
2022-11-24T09:18:59.713Z,84.72
2022-11-24T09:21:28.963Z,84.79
2022-11-24T09:23:57.309Z,84.02
2022-11-24T09:26:28.859Z,83.89
2022-11-24T09:28:57.745Z,83.64
2022-11-24T09:31:31.502Z,83.76
2022-11-24T09:34:01.062Z,83.74
2022-11-24T09:36:29.634Z,83.77
2022-11-24T09:38:58.021Z,83.82
2022-11-24T09:42:04.485Z,83.86
2022-11-24T09:44:46.706Z,84.05
2022-11-24T09:47:55.008Z,83.90
2022-11-24T09:50:24.629Z,84.01
2022-11-24T09:53:11.114Z,84.11
2022-11-24T09:56:16.077Z,83.88
2022-11-24T09:58:50.871Z,83.88
2022-11-24T10:01:24.469Z,84.49
2022-11-24T10:03:53.708Z,84.56
2022-11-24T10:06:40.901Z,84.60
2022-11-24T10:09:21.560Z,84.32
2022-11-24T10:12:21.592Z,84.63
2022-11-24T10:15:01.937Z,84.68
2022-11-24T10:17:56.134Z,84.87
2022-11-24T10:21:01.965Z,84.83
2022-11-24T10:24:03.828Z,84.26
2022-11-24T10:26:50.983Z,84.16
2022-11-24T10:29:30.745Z,84.42
2022-11-24T10:31:58.866Z,84.57
2022-11-24T10:34:37.483Z,84.43
2022-11-24T10:37:05.360Z,83.93
2022-11-24T10:40:48.721Z,83.93
2022-11-24T10:43:10.871Z,83.86
2022-11-24T10:45:40.028Z,83.58
2022-11-24T10:48:23.204Z,83.70
2022-11-24T10:50:56.922Z,83.67
2022-11-24T10:53:30.210Z,82.98
2022-11-24T10:56:04.659Z,83.12
2022-11-24T10:58:37.747Z,83.33
2022-11-24T11:01:14.863Z,83.46
2022-11-24T11:03:48.520Z,83.32
2022-11-24T11:06:24.896Z,83.22
2022-11-24T11:09:07.924Z,82.74
2022-11-24T11:11:38.779Z,82.87
2022-11-24T11:14:08.522Z,83.10
2022-11-24T11:16:40.642Z,83.16
2022-11-24T11:22:26.349Z,83.24
2022-11-24T11:25:07.399Z,83.41
2022-11-24T11:27:35.465Z,82.63
2022-11-24T11:36:13.128Z,83.03
2022-11-24T11:38:43.393Z,83.00
2022-11-24T11:41:20.698Z,83.05
2022-11-24T11:43:56.431Z,83.37
2022-11-24T11:46:26.585Z,83.36
2022-11-24T11:48:54.920Z,83.38
2022-11-24T11:55:28.044Z,83.35
2022-11-24T11:58:07.697Z,82.66
2022-11-24T12:00:45.443Z,82.69
2022-11-24T12:03:13.555Z,82.80
2022-11-24T12:05:47.210Z,83.15
2022-11-24T12:08:27.299Z,83.47
2022-11-24T12:11:16.771Z,83.56
2022-11-24T12:13:55.083Z,83.79
2022-11-24T12:16:45.770Z,83.82
2022-11-24T12:19:51.592Z,83.79
2022-11-24T12:22:22.485Z,83.67
2022-11-24T12:25:22.796Z,83.76
2022-11-24T12:28:05.722Z,83.87
2022-11-24T12:30:45.770Z,84.09
2022-11-24T12:33:28.694Z,83.72
2022-11-24T12:36:19.389Z,83.26
2022-11-24T12:39:16.889Z,83.58
2022-11-24T12:42:22.867Z,83.73
2022-11-24T12:45:08.392Z,84.01
2022-11-24T12:47:50.372Z,84.13
2022-11-24T12:50:20.943Z,84.27
2022-11-24T12:52:58.602Z,84.23
2022-11-24T12:55:29.138Z,84.17
2022-11-24T12:58:11.966Z,84.14
2022-11-24T13:00:54.622Z,83.45
2022-11-24T13:03:31.512Z,83.06
2022-11-24T13:06:45.861Z,83.11
2022-11-24T13:09:17.138Z,83.50
2022-11-24T13:11:50.331Z,83.71
2022-11-24T13:14:22.468Z,83.79
2022-11-24T13:17:58.177Z,83.94
2022-11-24T13:20:20.319Z,83.77
2022-11-24T13:22:52.924Z,83.56
2022-11-24T13:25:23.926Z,83.55
2022-11-24T13:27:53.616Z,83.72
2022-11-24T13:30:33.611Z,83.41
2022-11-24T13:33:16.962Z,83.35
2022-11-24T13:36:04.160Z,83.60
2022-11-24T13:38:51.218Z,83.80
2022-11-24T13:41:31.819Z,84.03
2022-11-24T13:44:15.322Z,84.09
2022-11-24T13:47:06.591Z,84.16
2022-11-24T13:49:39.051Z,84.37
2022-11-24T13:52:38.007Z,84.59
2022-11-24T13:55:12.038Z,84.62
2022-11-24T13:57:45.607Z,84.91
2022-11-24T14:00:25.658Z,85.17
2022-11-24T14:02:59.504Z,85.38
2022-11-24T14:05:36.034Z,85.44
2022-11-24T14:08:06.564Z,85.75
2022-11-24T14:10:37.566Z,85.74
2022-11-24T14:13:23.777Z,85.89
2022-11-24T14:16:10.163Z,86.08
2022-11-24T14:18:40.524Z,85.88
2022-11-24T14:21:20.852Z,85.86
2022-11-24T14:23:56.321Z,85.84
2022-11-24T14:26:46.614Z,85.88
2022-11-24T14:29:17.448Z,85.89
2022-11-24T14:31:53.816Z,85.98
2022-11-24T14:34:23.832Z,86.27
2022-11-24T14:36:54.977Z,86.32
2022-11-24T14:39:25.092Z,86.39
2022-11-24T14:42:05.037Z,86.47
2022-11-24T14:45:00.857Z,86.47
2022-11-24T14:47:32.529Z,86.42
2022-11-24T14:50:27.266Z,86.36
2022-11-24T14:52:58.001Z,86.38
2022-11-24T14:55:31.854Z,86.50
2022-11-24T14:58:00.466Z,86.57
2022-11-24T15:00:31.565Z,86.58
2022-11-24T15:03:14.557Z,86.64
2022-11-24T15:05:58.731Z,86.67
2022-11-24T15:08:29.987Z,86.74
2022-11-24T15:11:03.113Z,86.89
2022-11-24T15:13:37.536Z,86.81
2022-11-24T15:16:14.409Z,86.82
2022-11-24T15:18:56.124Z,86.84
2022-11-24T15:21:35.094Z,86.86
2022-11-24T15:24:15.220Z,86.90
2022-11-24T15:26:44.098Z,86.93
2022-11-24T15:29:12.923Z,86.95
2022-11-24T15:31:45.114Z,86.99
2022-11-24T15:34:15.823Z,86.99
2022-11-24T15:36:43.691Z,87.01
2022-11-24T15:39:12.297Z,87.04
2022-11-24T15:41:41.250Z,87.06
2022-11-24T15:44:10.357Z,87.03
2022-11-24T15:46:39.666Z,87.02
2022-11-24T15:49:07.835Z,87.00
2022-11-24T15:51:44.810Z,87.02
2022-11-24T15:54:18.941Z,87.06
2022-11-24T15:56:47.305Z,87.06
2022-11-24T15:59:20.196Z,87.10
2022-11-24T16:01:51.096Z,87.17
2022-11-24T16:04:19.201Z,87.24
2022-11-24T16:06:47.272Z,87.22
2022-11-24T16:09:17.293Z,87.21
2022-11-24T16:11:45.247Z,87.11
2022-11-24T16:14:13.174Z,87.01
2022-11-24T16:16:41.669Z,87.08
2022-11-24T16:19:10.858Z,87.08
2022-11-24T16:21:38.755Z,87.10
2022-11-24T16:24:07.175Z,87.03
2022-11-24T16:26:35.106Z,87.11
2022-11-24T16:29:02.963Z,87.11
2022-11-24T16:31:30.981Z,87.10
2022-11-24T16:33:58.807Z,87.16
2022-11-24T16:36:26.876Z,87.20
2022-11-24T16:38:54.843Z,87.19
2022-11-24T16:41:23.110Z,87.22
2022-11-24T16:43:51.494Z,87.27
2022-11-24T16:46:21.803Z,87.29
2022-11-24T16:48:52.852Z,87.42
2022-11-24T16:51:23.501Z,87.51
2022-11-24T16:54:02.442Z,87.50
2022-11-24T16:56:31.563Z,87.35
2022-11-24T16:58:59.576Z,87.32
2022-11-24T17:01:27.676Z,87.37
2022-11-24T17:03:56.277Z,87.46
2022-11-24T17:06:24.501Z,87.59
2022-11-24T17:08:54.310Z,87.76
2022-11-24T17:11:25.970Z,87.76
2022-11-24T17:13:54.239Z,87.76
2022-11-24T17:16:24.113Z,87.68
2022-11-24T17:18:52.733Z,87.65
2022-11-24T17:21:25.827Z,87.72
2022-11-24T17:23:55.739Z,87.81
2022-11-24T17:26:24.994Z,87.86
2022-11-24T17:28:54.279Z,87.85
2022-11-24T17:31:23.550Z,87.99
2022-11-24T17:33:53.453Z,87.99
2022-11-24T17:36:22.033Z,87.99
2022-11-24T17:38:50.476Z,87.99
2022-11-24T17:41:19.619Z,88.00
2022-11-24T17:43:52.280Z,88.06
2022-11-24T17:46:20.452Z,88.10
2022-11-24T17:48:48.625Z,88.11
2022-11-24T17:51:19.124Z,88.15
2022-11-24T17:53:49.583Z,88.10
2022-11-24T17:56:21.952Z,88.06
2022-11-24T17:58:57.096Z,88.02
2022-11-24T18:01:28.777Z,88.05
2022-11-24T18:03:58.043Z,88.10
2022-11-24T18:06:28.702Z,88.13
2022-11-24T18:08:57.898Z,88.27
2022-11-24T18:11:31.421Z,88.29
2022-11-24T18:14:02.575Z,88.45
2022-11-24T18:16:32.918Z,88.40
2022-11-24T18:19:10.916Z,88.41
2022-11-24T18:21:41.483Z,88.41
2022-11-24T18:24:11.490Z,88.43
2022-11-24T18:26:41.089Z,88.35
2022-11-24T18:29:10.696Z,88.32
2022-11-24T18:31:38.835Z,88.38
2022-11-24T18:34:07.143Z,88.41
2022-11-24T18:36:35.938Z,88.44
2022-11-24T18:39:06.151Z,88.40
2022-11-24T18:41:34.439Z,88.38
2022-11-24T18:44:03.460Z,88.32
2022-11-24T18:46:31.590Z,88.31
2022-11-24T18:48:59.660Z,88.33
2022-11-24T18:51:28.656Z,88.35
2022-11-24T18:54:00.141Z,88.30
2022-11-24T18:56:28.118Z,88.28
2022-11-24T18:58:56.801Z,88.27
2022-11-24T19:01:28.264Z,88.21
2022-11-24T19:03:58.898Z,88.14
2022-11-24T19:06:32.374Z,88.12
2022-11-24T19:09:13.683Z,88.15
2022-11-24T19:11:44.550Z,88.17
2022-11-24T19:14:19.429Z,88.18
2022-11-24T19:16:48.256Z,88.18
2022-11-24T19:19:17.369Z,88.23
2022-11-24T19:21:45.573Z,88.29
2022-11-24T19:24:13.649Z,88.34
2022-11-24T19:26:41.883Z,88.36
2022-11-24T19:29:09.748Z,88.40
2022-11-24T19:31:39.510Z,88.45
2022-11-24T19:34:08.239Z,88.48
2022-11-24T19:36:37.080Z,88.50
2022-11-24T19:39:05.825Z,88.51
2022-11-24T19:41:34.534Z,88.56
2022-11-24T19:44:02.548Z,88.59
2022-11-24T19:46:30.556Z,88.63
2022-11-24T19:49:02.801Z,88.64
2022-11-24T19:51:33.848Z,88.65
2022-11-24T19:54:03.074Z,88.66
2022-11-24T19:56:35.006Z,88.62
2022-11-24T19:59:05.738Z,88.57
2022-11-24T20:01:39.725Z,88.55
2022-11-24T20:04:10.693Z,88.54
2022-11-24T20:06:41.023Z,88.53
2022-11-24T20:09:12.086Z,88.47
2022-11-24T20:11:40.798Z,88.43
2022-11-24T20:14:11.738Z,88.40
2022-11-24T20:16:39.674Z,88.37
2022-11-24T20:19:11.310Z,88.42
2022-11-24T20:21:41.825Z,88.44
2022-11-24T20:24:15.492Z,88.41
2022-11-24T20:26:46.723Z,88.41
2022-11-24T20:29:15.884Z,88.44
2022-11-24T20:31:46.296Z,88.35
2022-11-24T20:34:15.459Z,88.34
2022-11-24T20:36:45.937Z,88.41
2022-11-24T20:39:22.543Z,88.50
2022-11-24T20:41:50.408Z,88.65
2022-11-24T20:44:21.596Z,88.69
2022-11-24T20:46:50.071Z,88.67
2022-11-24T20:49:20.315Z,88.68
2022-11-24T20:51:48.363Z,88.65
2022-11-24T20:54:18.212Z,88.71
2022-11-24T20:56:48.100Z,88.74
2022-11-24T20:59:19.028Z,88.76
2022-11-24T21:01:48.790Z,88.81
2022-11-24T21:04:23.571Z,88.79
2022-11-24T21:06:51.699Z,88.78
2022-11-24T21:09:19.920Z,88.65
2022-11-24T21:11:49.232Z,88.59
2022-11-24T21:14:17.488Z,88.61
2022-11-24T21:16:45.381Z,88.48
2022-11-24T21:19:17.696Z,88.50
2022-11-24T21:21:47.786Z,88.53
2022-11-24T21:24:18.047Z,88.56
2022-11-24T21:26:51.355Z,88.60
2022-11-24T21:29:22.389Z,88.57
2022-11-24T21:31:50.594Z,88.51
2022-11-24T21:34:19.657Z,88.58
2022-11-24T21:36:47.592Z,88.64
2022-11-24T21:39:16.190Z,88.66
2022-11-24T21:41:44.357Z,88.70
2022-11-24T21:44:13.723Z,88.71
2022-11-24T21:46:51.066Z,88.68
2022-11-24T21:49:23.510Z,88.69
2022-11-24T21:51:55.648Z,88.60
2022-11-24T21:54:24.573Z,88.62
2022-11-24T21:56:53.675Z,88.64
2022-11-24T21:59:22.345Z,88.71
2022-11-24T22:01:50.586Z,88.63
2022-11-24T22:04:18.593Z,88.65
2022-11-24T22:06:46.557Z,88.60
2022-11-24T22:09:17.973Z,88.59
2022-11-24T22:11:49.476Z,88.46
2022-11-24T22:14:18.030Z,88.26
2022-11-24T22:16:46.505Z,88.33
2022-11-24T22:19:14.484Z,88.49
2022-11-24T22:21:42.353Z,88.52
2022-11-24T22:24:10.451Z,88.51
2022-11-24T22:26:38.388Z,88.36
2022-11-24T22:29:06.358Z,88.19
2022-11-24T22:31:34.286Z,88.41
2022-11-24T22:34:02.701Z,88.74
2022-11-24T22:36:31.038Z,88.62
2022-11-24T22:39:04.276Z,88.51
2022-11-24T22:41:34.187Z,88.30
2022-11-24T22:44:02.355Z,88.17
2022-11-24T22:46:32.123Z,88.21
2022-11-24T22:49:01.754Z,88.41
2022-11-24T22:51:33.090Z,88.41
2022-11-24T22:54:03.754Z,88.34
2022-11-24T22:56:33.448Z,88.36
2022-11-24T22:59:03.081Z,88.34
2022-11-24T23:01:33.779Z,88.33
2022-11-24T23:04:03.811Z,88.27
2022-11-24T23:06:33.224Z,88.24
2022-11-24T23:09:02.927Z,88.22
2022-11-24T23:11:38.021Z,88.26
2022-11-24T23:14:08.591Z,88.28
2022-11-24T23:16:36.526Z,88.35
2022-11-24T23:19:04.730Z,88.41
2022-11-24T23:21:34.780Z,88.51
2022-11-24T23:24:04.865Z,88.63
2022-11-24T23:26:35.806Z,88.66
2022-11-24T23:29:04.948Z,88.71
2022-11-24T23:31:33.744Z,88.61
2022-11-24T23:34:03.401Z,88.53
2022-11-24T23:36:32.466Z,88.57
2022-11-24T23:39:08.695Z,88.62
2022-11-24T23:41:36.821Z,88.74
2022-11-24T23:44:05.233Z,88.77
2022-11-24T23:46:33.779Z,88.78
2022-11-24T23:49:01.745Z,88.79
2022-11-24T23:51:32.225Z,88.69
2022-11-24T23:56:46.241Z,88.76
2022-11-24T23:59:14.202Z,88.85
